createdAt,value
2017-06-24T00:00:37.601Z,0
2017-06-24T00:01:47.846Z,0
2017-06-24T00:02:58.084Z,0
2017-06-24T00:04:08.017Z,0
2017-06-24T00:05:17.943Z,0
2017-06-24T00:06:28.433Z,0
2017-06-24T00:07:38.685Z,0
2017-06-24T00:08:48.930Z,0
2017-06-24T00:09:58.855Z,0
2017-06-24T00:11:08.798Z,0
2017-06-24T00:12:19.285Z,0
2017-06-24T00:13:29.532Z,0
2017-06-24T00:14:39.769Z,0
2017-06-24T00:15:50.015Z,0
2017-06-24T00:17:00.258Z,0
2017-06-24T00:18:10.751Z,0
2017-06-24T00:19:20.687Z,0
2017-06-24T00:20:30.971Z,0
2017-06-24T00:21:40.902Z,0
2017-06-24T00:22:50.829Z,0
2017-06-24T00:24:01.335Z,0
2017-06-24T00:25:10.971Z,0
2017-06-24T00:26:21.215Z,0
2017-06-24T00:27:31.456Z,0
2017-06-24T00:28:41.695Z,0
2017-06-24T00:29:52.196Z,0
2017-06-24T00:31:02.433Z,0
2017-06-24T00:32:12.365Z,0
2017-06-24T00:33:22.295Z,0
2017-06-24T00:34:32.537Z,0
2017-06-24T00:35:42.734Z,0
2017-06-24T00:36:52.972Z,0
2017-06-24T00:38:03.207Z,0
2017-06-24T00:39:13.443Z,0
2017-06-24T00:40:23.682Z,0
2017-06-24T00:41:34.176Z,0
2017-06-24T00:42:44.420Z,0
2017-06-24T00:43:54.359Z,0
2017-06-24T00:45:04.603Z,0
2017-06-24T00:46:14.836Z,0
2017-06-24T00:47:25.319Z,0
2017-06-24T00:48:35.569Z,0
2017-06-24T00:49:45.817Z,0
2017-06-24T00:50:56.057Z,0
2017-06-24T00:52:06.306Z,0
2017-06-24T00:53:16.810Z,0
2017-06-24T00:54:26.738Z,0
2017-06-24T00:55:36.663Z,0
2017-06-24T00:56:46.900Z,0
2017-06-24T00:57:57.068Z,0
2017-06-24T00:59:07.714Z,0
2017-06-24T01:00:17.948Z,0
2017-06-24T01:01:27.876Z,0
2017-06-24T01:02:38.125Z,0
2017-06-24T01:03:48.366Z,0
2017-06-24T01:04:58.562Z,0
2017-06-24T01:06:08.501Z,0
2017-06-24T01:07:18.749Z,0
2017-06-24T01:08:28.982Z,0
2017-06-24T01:09:39.231Z,0
2017-06-24T01:10:49.746Z,0
2017-06-24T01:11:59.678Z,0
2017-06-24T01:13:09.602Z,0
2017-06-24T01:14:19.216Z,0
2017-06-24T01:15:29.446Z,0
2017-06-24T01:16:39.633Z,0
2017-06-24T01:17:49.877Z,0
2017-06-24T01:19:00.121Z,0
2017-06-24T01:20:10.355Z,0
2017-06-24T01:21:20.586Z,0
2017-06-24T01:22:30.766Z,0
2017-06-24T01:23:41.000Z,0
2017-06-24T01:24:51.256Z,0
2017-06-24T01:26:01.504Z,0
2017-06-24T01:27:11.429Z,0
2017-06-24T01:28:21.924Z,0
2017-06-24T01:29:32.159Z,0
2017-06-24T01:30:42.405Z,0
2017-06-24T01:31:52.337Z,0
2017-06-24T01:33:02.575Z,0
2017-06-24T01:34:12.755Z,0
2017-06-24T01:35:22.677Z,0
2017-06-24T01:36:32.610Z,0
2017-06-24T01:37:42.233Z,0
2017-06-24T01:38:51.871Z,0
2017-06-24T01:40:02.357Z,0
2017-06-24T01:41:12.590Z,0
2017-06-24T01:42:22.214Z,0
2017-06-24T01:43:32.150Z,0
2017-06-24T01:44:42.399Z,0
2017-06-24T01:45:52.272Z,0
2017-06-24T01:47:02.197Z,0
2017-06-24T01:48:12.435Z,0
2017-06-24T01:49:22.364Z,0
2017-06-24T01:50:32.607Z,0
2017-06-24T01:51:43.096Z,0
2017-06-24T01:52:53.022Z,0
2017-06-24T01:54:03.261Z,0
2017-06-24T01:55:13.197Z,0
2017-06-24T01:56:23.449Z,0
2017-06-24T01:57:33.940Z,0
2017-06-24T01:58:44.174Z,0
2017-06-24T01:59:54.108Z,0
2017-06-24T02:01:04.367Z,0
2017-06-24T02:02:14.605Z,0
2017-06-24T02:03:24.795Z,0
2017-06-24T02:04:35.033Z,0
2017-06-24T02:05:45.276Z,0
2017-06-24T02:06:55.514Z,0
2017-06-24T02:08:05.760Z,0
2017-06-24T02:09:15.946Z,0
2017-06-24T02:10:26.190Z,0
2017-06-24T02:11:36.429Z,0
2017-06-24T02:12:46.662Z,0
2017-06-24T02:13:56.892Z,0
2017-06-24T02:15:06.809Z,0
2017-06-24T02:16:17.041Z,0
2017-06-24T02:17:26.967Z,0
2017-06-24T02:18:37.207Z,0
2017-06-24T02:19:46.833Z,0
2017-06-24T02:20:57.020Z,0
2017-06-24T02:22:07.277Z,0
2017-06-24T02:23:17.512Z,0
2017-06-24T02:24:27.749Z,0
2017-06-24T02:25:37.983Z,0
2017-06-24T02:26:48.163Z,0
2017-06-24T02:27:58.397Z,0
2017-06-24T02:29:08.642Z,0
2017-06-24T02:30:18.272Z,0
2017-06-24T02:31:28.205Z,0
2017-06-24T02:32:38.384Z,0
2017-06-24T02:33:48.318Z,0
2017-06-24T02:34:58.259Z,0
2017-06-24T02:36:08.502Z,0
2017-06-24T02:37:18.777Z,0
2017-06-24T02:38:29.261Z,0
2017-06-24T02:39:39.492Z,0
2017-06-24T02:40:49.726Z,0
2017-06-24T02:41:59.982Z,0
2017-06-24T02:43:10.216Z,0
2017-06-24T02:44:20.719Z,0
2017-06-24T02:45:30.961Z,5
2017-06-24T02:46:41.204Z,5
2017-06-24T02:47:51.439Z,5
2017-06-24T02:49:01.373Z,5
2017-06-24T02:50:11.862Z,5
2017-06-24T02:51:22.097Z,5
2017-06-24T02:52:32.335Z,5
2017-06-24T02:53:42.268Z,5
2017-06-24T02:54:52.499Z,10
2017-06-24T02:56:02.062Z,10
2017-06-24T02:57:12.302Z,10
2017-06-24T02:58:22.539Z,10
2017-06-24T02:59:32.469Z,10
2017-06-24T03:00:42.712Z,10
2017-06-24T03:01:53.192Z,10
2017-06-24T03:03:03.421Z,10
2017-06-24T03:04:13.670Z,10
2017-06-24T03:05:23.908Z,10
2017-06-24T03:06:34.154Z,10
2017-06-24T03:07:44.641Z,10
2017-06-24T03:08:54.582Z,10
2017-06-24T03:10:04.817Z,10
2017-06-24T03:11:15.054Z,10
2017-06-24T03:12:25.298Z,10
2017-06-24T03:13:35.787Z,10
2017-06-24T03:14:46.023Z,10
2017-06-24T03:15:55.962Z,10
2017-06-24T03:17:06.206Z,10
2017-06-24T03:18:16.449Z,10
2017-06-24T03:19:26.988Z,15
2017-06-24T03:20:37.231Z,15
2017-06-24T03:21:47.488Z,15
2017-06-24T03:22:57.721Z,15
2017-06-24T03:24:07.956Z,15
2017-06-24T03:25:18.450Z,15
2017-06-24T03:26:28.682Z,15
2017-06-24T03:27:38.914Z,15
2017-06-24T03:28:49.146Z,15
2017-06-24T03:29:59.082Z,20
2017-06-24T03:31:09.303Z,25
2017-06-24T03:32:19.545Z,25
2017-06-24T03:33:29.803Z,30
2017-06-24T03:34:40.045Z,30
2017-06-24T03:35:49.977Z,30
2017-06-24T03:37:00.170Z,30
2017-06-24T03:38:10.402Z,35
2017-06-24T03:39:20.326Z,35
2017-06-24T03:40:30.579Z,35
2017-06-24T03:41:40.819Z,35
2017-06-24T03:42:50.698Z,35
2017-06-24T03:44:00.631Z,35
2017-06-24T03:45:10.874Z,35
2017-06-24T03:46:21.117Z,35
2017-06-24T03:47:31.365Z,35
2017-06-24T03:48:41.883Z,35
2017-06-24T03:49:52.123Z,40
2017-06-24T03:51:02.358Z,40
2017-06-24T03:52:12.586Z,45
2017-06-24T03:53:22.522Z,45
2017-06-24T03:54:33.014Z,50
2017-06-24T03:55:42.954Z,50
2017-06-24T03:56:52.891Z,50
2017-06-24T03:58:03.133Z,50
2017-06-24T03:59:13.383Z,50
2017-06-24T04:00:23.876Z,55
2017-06-24T04:01:34.109Z,55
2017-06-24T04:02:43.725Z,60
2017-06-24T04:03:53.971Z,65
2017-06-24T04:05:04.215Z,75
2017-06-24T04:06:14.697Z,75
2017-06-24T04:07:24.949Z,75
2017-06-24T04:08:35.191Z,70
2017-06-24T04:09:45.426Z,70
2017-06-24T04:10:55.351Z,75
2017-06-24T04:12:05.836Z,70
2017-06-24T04:13:15.768Z,75
2017-06-24T04:14:26.008Z,75
2017-06-24T04:15:36.253Z,75
2017-06-24T04:16:46.486Z,75
2017-06-24T04:17:56.984Z,75
2017-06-24T04:19:06.913Z,75
2017-06-24T04:20:17.145Z,75
2017-06-24T04:21:27.380Z,75
2017-06-24T04:22:37.628Z,75
2017-06-24T04:23:48.168Z,75
2017-06-24T04:24:58.401Z,75
2017-06-24T04:26:08.640Z,75
2017-06-24T04:27:18.574Z,80
2017-06-24T04:28:28.800Z,90
2017-06-24T04:29:39.280Z,100
2017-06-24T04:30:49.524Z,110
2017-06-24T04:31:59.761Z,110
2017-06-24T04:33:10.008Z,110
2017-06-24T04:34:20.251Z,115
2017-06-24T04:35:30.741Z,120
2017-06-24T04:36:40.974Z,125
2017-06-24T04:37:51.214Z,125
2017-06-24T04:39:01.451Z,125
2017-06-24T04:40:11.693Z,125
2017-06-24T04:41:22.231Z,120
2017-06-24T04:42:32.470Z,120
2017-06-24T04:43:42.713Z,125
2017-06-24T04:44:52.952Z,125
2017-06-24T04:46:03.198Z,125
2017-06-24T04:47:13.439Z,130
2017-06-24T04:48:23.674Z,135
2017-06-24T04:49:33.917Z,140
2017-06-24T04:50:44.154Z,135
2017-06-24T04:51:54.402Z,135
2017-06-24T04:53:04.894Z,130
2017-06-24T04:54:14.828Z,125
2017-06-24T04:55:25.060Z,125
2017-06-24T04:56:34.992Z,135
2017-06-24T04:57:45.227Z,140
2017-06-24T04:58:55.721Z,150
2017-06-24T05:00:05.957Z,150
2017-06-24T05:01:15.906Z,155
2017-06-24T05:02:26.170Z,165
2017-06-24T05:03:36.094Z,175
2017-06-24T05:04:46.583Z,175
2017-06-24T05:05:56.827Z,180
2017-06-24T05:07:06.769Z,185
2017-06-24T05:08:17.003Z,195
2017-06-24T05:09:27.237Z,200
2017-06-24T05:10:37.421Z,200
2017-06-24T05:11:47.664Z,195
2017-06-24T05:12:57.614Z,190
2017-06-24T05:14:07.847Z,180
2017-06-24T05:15:17.770Z,170
2017-06-24T05:16:28.258Z,165
2017-06-24T05:17:38.518Z,165
2017-06-24T05:18:48.758Z,165
2017-06-24T05:19:58.994Z,165
2017-06-24T05:21:09.254Z,170
2017-06-24T05:22:19.740Z,175
2017-06-24T05:23:29.981Z,185
2017-06-24T05:24:39.926Z,185
2017-06-24T05:25:50.160Z,185
2017-06-24T05:27:00.098Z,190
2017-06-24T05:28:10.274Z,200
2017-06-24T05:29:20.521Z,215
2017-06-24T05:30:30.762Z,225
2017-06-24T05:31:40.999Z,215
2017-06-24T05:32:51.238Z,210
2017-06-24T05:34:01.733Z,195
2017-06-24T05:35:11.661Z,185
2017-06-24T05:36:21.927Z,195
2017-06-24T05:37:32.173Z,190
2017-06-24T05:38:42.109Z,190
2017-06-24T05:39:52.597Z,185
2017-06-24T05:41:02.833Z,185
2017-06-24T05:42:13.064Z,175
2017-06-24T05:43:23.321Z,180
2017-06-24T05:44:33.240Z,190
2017-06-24T05:45:43.785Z,205
2017-06-24T05:46:53.722Z,220
2017-06-24T05:48:03.967Z,250
2017-06-24T05:49:14.220Z,280
2017-06-24T05:50:24.459Z,295
2017-06-24T05:51:34.954Z,290
2017-06-24T05:52:45.200Z,285
2017-06-24T05:53:55.437Z,295
2017-06-24T05:55:05.665Z,300
2017-06-24T05:56:15.935Z,325
2017-06-24T05:57:26.427Z,355
2017-06-24T05:58:36.671Z,350
2017-06-24T05:59:46.600Z,340
2017-06-24T06:00:56.847Z,340
2017-06-24T06:02:07.083Z,360
2017-06-24T06:03:17.264Z,380
2017-06-24T06:04:27.503Z,420
2017-06-24T06:05:37.751Z,460
2017-06-24T06:06:47.986Z,525
2017-06-24T06:07:58.224Z,580
2017-06-24T06:09:08.722Z,600
2017-06-24T06:10:18.959Z,570
2017-06-24T06:11:29.208Z,505
2017-06-24T06:12:39.151Z,465
2017-06-24T06:13:49.395Z,455
2017-06-24T06:14:59.573Z,440
2017-06-24T06:16:09.812Z,410
2017-06-24T06:17:20.053Z,380
2017-06-24T06:18:30.305Z,370
2017-06-24T06:19:40.547Z,355
2017-06-24T06:20:51.057Z,340
2017-06-24T06:22:01.294Z,345
2017-06-24T06:23:11.237Z,365
2017-06-24T06:24:20.875Z,385
2017-06-24T06:25:31.119Z,415
2017-06-24T06:26:41.612Z,430
2017-06-24T06:27:51.868Z,415
2017-06-24T06:29:02.103Z,410
2017-06-24T06:30:12.053Z,420
2017-06-24T06:31:22.287Z,420
2017-06-24T06:32:32.790Z,430
2017-06-24T06:33:43.029Z,420
2017-06-24T06:34:52.956Z,385
2017-06-24T06:36:03.200Z,365
2017-06-24T06:37:13.135Z,340
2017-06-24T06:38:23.630Z,340
2017-06-24T06:39:33.868Z,370
2017-06-24T06:40:44.099Z,415
2017-06-24T06:41:54.063Z,470
2017-06-24T06:43:04.299Z,520
2017-06-24T06:44:14.481Z,520
2017-06-24T06:45:24.740Z,455
2017-06-24T06:46:34.673Z,415
2017-06-24T06:47:44.929Z,405
2017-06-24T06:48:55.178Z,395
2017-06-24T06:50:05.360Z,370
2017-06-24T06:51:14.981Z,360
2017-06-24T06:52:25.220Z,375
2017-06-24T06:53:35.463Z,395
2017-06-24T06:54:45.711Z,435
2017-06-24T06:55:55.900Z,470
2017-06-24T06:57:06.136Z,475
2017-06-24T06:58:16.371Z,465
2017-06-24T06:59:26.616Z,475
2017-06-24T07:00:36.853Z,440
2017-06-24T07:01:46.742Z,385
2017-06-24T07:02:56.678Z,360
2017-06-24T07:04:06.951Z,360
2017-06-24T07:05:17.210Z,360
2017-06-24T07:06:27.141Z,360
2017-06-24T07:07:37.695Z,390
2017-06-24T07:08:47.937Z,420
2017-06-24T07:09:58.183Z,415
2017-06-24T07:11:07.852Z,390
2017-06-24T07:12:18.101Z,345
2017-06-24T07:13:28.589Z,335
2017-06-24T07:14:38.828Z,355
2017-06-24T07:15:49.071Z,405
2017-06-24T07:16:59.333Z,460
2017-06-24T07:18:09.573Z,500
2017-06-24T07:19:20.058Z,535
2017-06-24T07:20:30.309Z,575
2017-06-24T07:21:39.624Z,560
2017-06-24T07:22:49.891Z,505
2017-06-24T07:24:00.131Z,485
2017-06-24T07:25:10.632Z,480
2017-06-24T07:26:20.879Z,470
2017-06-24T07:27:31.119Z,460
2017-06-24T07:28:41.047Z,450
2017-06-24T07:29:50.988Z,470
2017-06-24T07:31:01.480Z,505
2017-06-24T07:32:11.710Z,545
2017-06-24T07:33:21.952Z,535
2017-06-24T07:34:32.187Z,500
2017-06-24T07:35:42.438Z,465
2017-06-24T07:36:52.940Z,440
2017-06-24T07:38:03.185Z,420
2017-06-24T07:39:13.435Z,400
2017-06-24T07:40:23.675Z,380
2017-06-24T07:41:33.603Z,375
2017-06-24T07:42:44.093Z,385
2017-06-24T07:43:54.341Z,395
2017-06-24T07:45:04.286Z,420
2017-06-24T07:46:14.535Z,465
2017-06-24T07:47:24.773Z,485
2017-06-24T07:48:35.278Z,440
2017-06-24T07:49:45.517Z,405
2017-06-24T07:50:55.460Z,415
2017-06-24T07:52:05.693Z,420
2017-06-24T07:53:15.945Z,420
2017-06-24T07:54:26.149Z,410
2017-06-24T07:55:36.080Z,420
2017-06-24T07:56:46.337Z,435
2017-06-24T07:57:56.264Z,450
2017-06-24T07:59:06.506Z,460
2017-06-24T08:00:16.996Z,455
2017-06-24T08:01:27.236Z,450
2017-06-24T08:02:37.478Z,455
2017-06-24T08:03:47.713Z,445
2017-06-24T08:04:57.953Z,415
2017-06-24T08:06:08.467Z,390
2017-06-24T08:07:18.434Z,390
2017-06-24T08:08:28.383Z,405
2017-06-24T08:09:38.623Z,445
2017-06-24T08:10:48.858Z,475
2017-06-24T08:11:59.365Z,480
2017-06-24T08:13:09.607Z,485
2017-06-24T08:14:19.841Z,480
2017-06-24T08:15:30.081Z,465
2017-06-24T08:16:40.344Z,425
2017-06-24T08:17:50.524Z,385
2017-06-24T08:19:00.759Z,390
2017-06-24T08:20:10.719Z,370
2017-06-24T08:21:20.972Z,325
2017-06-24T08:22:31.207Z,315
2017-06-24T08:23:41.688Z,320
2017-06-24T08:24:51.936Z,305
2017-06-24T08:26:02.189Z,315
2017-06-24T08:27:12.423Z,335
2017-06-24T08:28:22.668Z,345
2017-06-24T08:29:32.857Z,350
2017-06-24T08:30:43.100Z,355
2017-06-24T08:31:53.335Z,365
2017-06-24T08:33:03.277Z,370
2017-06-24T08:34:13.233Z,365
2017-06-24T08:35:23.096Z,360
2017-06-24T08:36:33.028Z,360
2017-06-24T08:37:43.276Z,360
2017-06-24T08:38:53.511Z,375
2017-06-24T08:40:03.758Z,370
2017-06-24T08:41:14.294Z,345
2017-06-24T08:42:23.917Z,325
2017-06-24T08:43:33.850Z,335
2017-06-24T08:44:44.098Z,375
2017-06-24T08:45:54.360Z,450
2017-06-24T08:47:04.848Z,495
2017-06-24T08:48:14.476Z,490
2017-06-24T08:49:24.720Z,470
2017-06-24T08:50:34.966Z,440
2017-06-24T08:51:45.204Z,435
2017-06-24T08:52:55.387Z,455
2017-06-24T08:54:05.623Z,475
2017-06-24T08:55:15.562Z,495
2017-06-24T08:56:25.820Z,505
2017-06-24T08:57:36.070Z,515
2017-06-24T08:58:46.259Z,520
2017-06-24T08:59:56.188Z,535
2017-06-24T09:01:06.454Z,545
2017-06-24T09:02:16.387Z,535
2017-06-24T09:03:26.625Z,515
2017-06-24T09:04:36.513Z,520
2017-06-24T09:05:46.773Z,530
2017-06-24T09:06:56.710Z,560
2017-06-24T09:08:06.654Z,605
2017-06-24T09:09:16.891Z,665
2017-06-24T09:10:27.394Z,750
2017-06-24T09:11:37.330Z,850
2017-06-24T09:12:47.588Z,930
2017-06-24T09:13:57.824Z,970
2017-06-24T09:15:08.084Z,945
2017-06-24T09:16:18.282Z,825
2017-06-24T09:17:28.217Z,715
2017-06-24T09:18:37.864Z,740
2017-06-24T09:19:48.110Z,760
2017-06-24T09:20:58.355Z,775
2017-06-24T09:22:08.547Z,765
2017-06-24T09:23:18.801Z,740
2017-06-24T09:24:29.045Z,740
2017-06-24T09:25:39.304Z,720
2017-06-24T09:26:49.557Z,680
2017-06-24T09:28:00.043Z,705
2017-06-24T09:29:10.280Z,720
2017-06-24T09:30:20.522Z,675
2017-06-24T09:31:30.462Z,630
2017-06-24T09:32:40.700Z,620
2017-06-24T09:33:51.190Z,620
2017-06-24T09:35:01.439Z,600
2017-06-24T09:36:11.372Z,610
2017-06-24T09:37:21.606Z,665
2017-06-24T09:38:31.536Z,720
2017-06-24T09:39:41.414Z,725
2017-06-24T09:40:51.661Z,760
2017-06-24T09:42:01.286Z,825
2017-06-24T09:43:10.910Z,855
2017-06-24T09:44:21.162Z,855
2017-06-24T09:45:31.344Z,800
2017-06-24T09:46:41.297Z,775
2017-06-24T09:47:51.245Z,790
2017-06-24T09:49:01.180Z,855
2017-06-24T09:50:11.127Z,870
2017-06-24T09:51:21.307Z,825
2017-06-24T09:52:31.236Z,735
2017-06-24T09:53:41.479Z,675
2017-06-24T09:54:51.720Z,665
2017-06-24T09:56:01.355Z,650
2017-06-24T09:57:11.546Z,625
2017-06-24T09:58:21.479Z,665
2017-06-24T09:59:31.723Z,690
2017-06-24T10:00:41.966Z,670
2017-06-24T10:01:52.211Z,650
2017-06-24T10:03:02.702Z,655
2017-06-24T10:04:12.951Z,660
2017-06-24T10:05:23.205Z,690
2017-06-24T10:06:33.141Z,710
2017-06-24T10:07:43.379Z,710
2017-06-24T10:08:53.875Z,710
2017-06-24T10:10:03.819Z,700
2017-06-24T10:11:13.758Z,700
2017-06-24T10:12:23.997Z,700
2017-06-24T10:13:33.927Z,695
2017-06-24T10:14:43.809Z,680
2017-06-24T10:15:53.748Z,680
2017-06-24T10:17:04.006Z,675
2017-06-24T10:18:13.939Z,690
2017-06-24T10:19:24.180Z,725
2017-06-24T10:20:34.679Z,765
2017-06-24T10:21:44.630Z,755
2017-06-24T10:22:54.881Z,725
2017-06-24T10:24:05.118Z,750
2017-06-24T10:25:15.355Z,790
2017-06-24T10:26:25.543Z,775
2017-06-24T10:27:35.473Z,755
2017-06-24T10:28:45.409Z,735
2017-06-24T10:29:55.673Z,725
2017-06-24T10:31:05.608Z,735
2017-06-24T10:32:16.108Z,740
2017-06-24T10:33:26.340Z,725
2017-06-24T10:34:36.273Z,710
2017-06-24T10:35:46.512Z,680
2017-06-24T10:36:56.460Z,625
2017-06-24T10:38:06.651Z,595
2017-06-24T10:39:16.885Z,580
2017-06-24T10:40:27.130Z,610
2017-06-24T10:41:37.384Z,615
2017-06-24T10:42:47.629Z,595
2017-06-24T10:43:57.813Z,575
2017-06-24T10:45:07.759Z,590
2017-06-24T10:46:17.998Z,600
2017-06-24T10:47:27.938Z,610
2017-06-24T10:48:38.191Z,660
2017-06-24T10:49:48.684Z,695
2017-06-24T10:50:58.616Z,735
2017-06-24T10:52:08.872Z,750
2017-06-24T10:53:18.800Z,775
2017-06-24T10:54:29.039Z,750
2017-06-24T10:55:39.545Z,700
2017-06-24T10:56:49.574Z,655
2017-06-24T10:57:59.507Z,610
2017-06-24T10:59:09.465Z,560
2017-06-24T11:00:19.402Z,520
2017-06-24T11:01:29.895Z,500
2017-06-24T11:02:40.149Z,515
2017-06-24T11:03:50.398Z,545
2017-06-24T11:05:00.639Z,585
2017-06-24T11:06:10.894Z,610
2017-06-24T11:07:21.389Z,660
2017-06-24T11:08:31.633Z,715
2017-06-24T11:09:41.885Z,765
2017-06-24T11:10:52.134Z,755
2017-06-24T11:12:02.381Z,710
2017-06-24T11:13:12.884Z,670
2017-06-24T11:14:23.131Z,625
2017-06-24T11:15:33.384Z,590
2017-06-24T11:16:43.315Z,530
2017-06-24T11:17:53.564Z,490
2017-06-24T11:19:04.076Z,490
2017-06-24T11:20:14.041Z,510
2017-06-24T11:21:23.985Z,530
2017-06-24T11:22:33.962Z,585
2017-06-24T11:23:44.212Z,685
2017-06-24T11:24:54.405Z,755
2017-06-24T11:26:04.655Z,805
2017-06-24T11:27:14.895Z,825
2017-06-24T11:28:24.826Z,790
2017-06-24T11:29:35.077Z,750
2017-06-24T11:30:45.578Z,710
2017-06-24T11:31:55.525Z,690
2017-06-24T11:33:05.467Z,685
2017-06-24T11:34:15.397Z,675
2017-06-24T11:35:25.648Z,665
2017-06-24T11:36:35.841Z,615
2017-06-24T11:37:46.079Z,570
2017-06-24T11:38:56.326Z,540
2017-06-24T11:40:06.607Z,535
2017-06-24T11:41:16.542Z,500
2017-06-24T11:42:27.029Z,410
2017-06-24T11:43:37.276Z,365
2017-06-24T11:44:47.519Z,355
2017-06-24T11:45:57.148Z,360
2017-06-24T11:47:07.088Z,305
2017-06-24T11:48:17.266Z,255
2017-06-24T11:49:27.210Z,220
2017-06-24T11:50:36.836Z,215
2017-06-24T11:51:46.153Z,220
2017-06-24T11:52:56.406Z,255
2017-06-24T11:54:06.906Z,315
2017-06-24T11:55:17.150Z,390
2017-06-24T11:56:27.388Z,495
2017-06-24T11:57:37.359Z,620
2017-06-24T11:58:47.287Z,715
2017-06-24T11:59:57.471Z,745
2017-06-24T12:01:07.704Z,755
2017-06-24T12:02:17.664Z,695
2017-06-24T12:03:27.917Z,635
2017-06-24T12:04:37.894Z,610
2017-06-24T12:05:48.175Z,625
2017-06-24T12:06:58.412Z,620
2017-06-24T12:08:08.656Z,540
2017-06-24T12:09:18.604Z,480
2017-06-24T12:10:28.543Z,455
2017-06-24T12:11:38.724Z,405
2017-06-24T12:12:48.667Z,390
2017-06-24T12:13:58.916Z,400
2017-06-24T12:15:09.155Z,410
2017-06-24T12:16:19.410Z,415
2017-06-24T12:17:29.910Z,390
2017-06-24T12:18:40.176Z,400
2017-06-24T12:19:50.420Z,405
2017-06-24T12:21:00.355Z,385
2017-06-24T12:22:10.604Z,415
2017-06-24T12:23:21.132Z,445
2017-06-24T12:24:31.363Z,475
2017-06-24T12:25:41.603Z,490
2017-06-24T12:26:51.857Z,515
2017-06-24T12:28:01.802Z,545
2017-06-24T12:29:11.377Z,560
2017-06-24T12:30:21.301Z,545
2017-06-24T12:31:31.255Z,510
2017-06-24T12:32:41.180Z,530
2017-06-24T12:33:51.129Z,570
2017-06-24T12:35:01.622Z,585
2017-06-24T12:36:11.260Z,585
2017-06-24T12:37:21.506Z,605
2017-06-24T12:38:31.131Z,705
2017-06-24T12:39:41.384Z,795
2017-06-24T12:40:51.892Z,780
2017-06-24T12:42:01.836Z,750
2017-06-24T12:43:12.074Z,715
2017-06-24T12:44:22.323Z,745
2017-06-24T12:45:32.569Z,905
2017-06-24T12:46:42.756Z,1040
2017-06-24T12:47:52.998Z,950
2017-06-24T12:49:02.933Z,865
2017-06-24T12:50:12.253Z,850
2017-06-24T12:51:21.916Z,885
2017-06-24T12:52:32.100Z,915
2017-06-24T12:53:42.355Z,900
2017-06-24T12:54:52.614Z,875
2017-06-24T12:56:02.546Z,865
2017-06-24T12:57:12.801Z,885
2017-06-24T12:58:22.996Z,945
2017-06-24T12:59:33.236Z,940
2017-06-24T13:00:43.475Z,900
2017-06-24T13:01:53.731Z,860
2017-06-24T13:03:04.007Z,855
2017-06-24T13:04:14.517Z,880
2017-06-24T13:05:24.784Z,910
2017-06-24T13:06:35.046Z,960
2017-06-24T13:07:45.297Z,965
2017-06-24T13:08:55.539Z,965
2017-06-24T13:10:05.459Z,1005
2017-06-24T13:11:15.394Z,1075
2017-06-24T13:12:25.631Z,1185
2017-06-24T13:13:35.876Z,1285
2017-06-24T13:14:46.114Z,1350
2017-06-24T13:15:56.651Z,1505
2017-06-24T13:17:06.603Z,1695
2017-06-24T13:18:16.867Z,1885
2017-06-24T13:19:26.812Z,2630
2017-06-24T13:20:37.070Z,1765
2017-06-24T13:21:46.959Z,1740
2017-06-24T13:22:57.201Z,1990
2017-06-24T13:24:07.141Z,1895
2017-06-24T13:25:17.068Z,1840
2017-06-24T13:26:26.727Z,2645
2017-06-24T13:27:37.225Z,2160
2017-06-24T13:28:47.169Z,1695
2017-06-24T13:29:57.407Z,1500
2017-06-24T13:31:07.666Z,1340
2017-06-24T13:32:17.912Z,1425
2017-06-24T13:33:27.819Z,1335
2017-06-24T13:34:38.064Z,1195
2017-06-24T13:35:47.998Z,1095
2017-06-24T13:36:58.250Z,1115
2017-06-24T13:38:08.191Z,1125
2017-06-24T13:39:18.714Z,1070
2017-06-24T13:40:28.956Z,1095
2017-06-24T13:41:38.890Z,1195
2017-06-24T13:42:49.174Z,1325
2017-06-24T13:43:59.130Z,1245
2017-06-24T13:45:09.631Z,1325
2017-06-24T13:46:19.579Z,1280
2017-06-24T13:47:29.830Z,1265
2017-06-24T13:48:40.173Z,1200
2017-06-24T13:49:50.120Z,1130
2017-06-24T13:51:00.319Z,1180
2017-06-24T13:52:10.620Z,1235
2017-06-24T13:53:20.585Z,1245
2017-06-24T13:54:30.850Z,1205
2017-06-24T13:55:40.784Z,1155
2017-06-24T13:56:51.277Z,1110
2017-06-24T13:58:01.758Z,1085
2017-06-24T13:59:11.704Z,960
2017-06-24T14:00:21.959Z,900
2017-06-24T14:01:32.219Z,900
2017-06-24T14:02:42.758Z,925
2017-06-24T14:03:52.698Z,950
2017-06-24T14:05:02.640Z,1015
2017-06-24T14:06:12.588Z,1095
2017-06-24T14:07:22.226Z,1140
2017-06-24T14:08:32.746Z,1175
2017-06-24T14:09:42.696Z,1300
2017-06-24T14:10:52.641Z,1740
2017-06-24T14:12:02.894Z,1300
2017-06-24T14:13:12.822Z,1210
2017-06-24T14:14:23.355Z,1190
2017-06-24T14:15:33.301Z,1240
2017-06-24T14:16:43.578Z,1305
2017-06-24T14:17:53.835Z,1405
2017-06-24T14:19:04.096Z,1355
2017-06-24T14:20:14.611Z,1310
2017-06-24T14:21:24.849Z,1225
2017-06-24T14:22:34.820Z,1140
2017-06-24T14:23:44.772Z,1040
2017-06-24T14:24:55.040Z,1010
2017-06-24T14:26:05.541Z,1030
2017-06-24T14:27:15.787Z,925
2017-06-24T14:28:26.031Z,825
2017-06-24T14:29:36.292Z,800
2017-06-24T14:30:46.551Z,795
2017-06-24T14:31:57.066Z,745
2017-06-24T14:33:07.331Z,715
2017-06-24T14:34:17.580Z,700
2017-06-24T14:35:27.832Z,675
2017-06-24T14:36:38.096Z,685
2017-06-24T14:37:48.285Z,690
2017-06-24T14:38:58.243Z,685
2017-06-24T14:40:08.512Z,640
2017-06-24T14:41:18.155Z,605
2017-06-24T14:42:28.401Z,590
2017-06-24T14:43:38.596Z,570
2017-06-24T14:44:48.846Z,545
2017-06-24T14:45:59.099Z,530
2017-06-24T14:47:09.363Z,510
2017-06-24T14:48:19.609Z,505
2017-06-24T14:49:30.104Z,515
2017-06-24T14:50:40.058Z,530
2017-06-24T14:51:49.995Z,545
2017-06-24T14:52:59.928Z,575
2017-06-24T14:54:10.552Z,600
2017-06-24T14:55:21.063Z,620
2017-06-24T14:56:31.005Z,600
2017-06-24T14:57:41.014Z,575
2017-06-24T14:58:51.296Z,540
2017-06-24T15:00:01.237Z,515
2017-06-24T15:01:11.210Z,490
2017-06-24T15:02:21.474Z,505
2017-06-24T15:03:31.912Z,525
2017-06-24T15:04:42.169Z,540
2017-06-24T15:05:52.355Z,570
2017-06-24T15:07:01.976Z,625
2017-06-24T15:08:12.219Z,665
2017-06-24T15:09:22.457Z,675
2017-06-24T15:10:32.744Z,640
2017-06-24T15:11:42.931Z,595
2017-06-24T15:12:52.870Z,535
2017-06-24T15:14:03.111Z,495
2017-06-24T15:15:13.048Z,505
2017-06-24T15:16:23.301Z,510
2017-06-24T15:17:33.792Z,505
2017-06-24T15:18:44.055Z,505
2017-06-24T15:19:54.338Z,505
2017-06-24T15:21:04.622Z,505
2017-06-24T15:22:14.603Z,535
2017-06-24T15:23:25.094Z,575
2017-06-24T15:24:35.054Z,610
2017-06-24T15:25:45.035Z,570
2017-06-24T15:26:54.981Z,500
2017-06-24T15:28:04.915Z,480
2017-06-24T15:29:15.106Z,490
2017-06-24T15:30:25.355Z,535
2017-06-24T15:31:35.302Z,475
2017-06-24T15:32:45.546Z,420
2017-06-24T15:33:55.790Z,395
2017-06-24T15:35:05.998Z,395
2017-06-24T15:36:15.953Z,400
2017-06-24T15:37:26.212Z,390
2017-06-24T15:38:36.458Z,370
2017-06-24T15:39:46.403Z,335
2017-06-24T15:40:56.900Z,340
2017-06-24T15:42:07.380Z,385
2017-06-24T15:43:17.307Z,435
2017-06-24T15:44:27.559Z,465
2017-06-24T15:45:37.490Z,480
2017-06-24T15:46:47.996Z,490
2017-06-24T15:47:57.622Z,460
2017-06-24T15:49:07.859Z,455
2017-06-24T15:50:17.806Z,490
2017-06-24T15:51:28.065Z,485
2017-06-24T15:52:38.552Z,475
2017-06-24T15:53:48.802Z,505
2017-06-24T15:54:58.737Z,565
2017-06-24T15:56:08.703Z,615
2017-06-24T15:57:18.334Z,640
2017-06-24T15:58:28.514Z,675
2017-06-24T15:59:38.766Z,775
2017-06-24T16:00:49.024Z,925
2017-06-24T16:01:59.307Z,940
2017-06-24T16:03:09.565Z,915
2017-06-24T16:04:19.745Z,1180
2017-06-24T16:05:29.995Z,1195
2017-06-24T16:06:39.985Z,1380
2017-06-24T16:07:50.233Z,1625
2017-06-24T16:09:00.486Z,1075
2017-06-24T16:10:10.756Z,810
2017-06-24T16:11:20.701Z,680
2017-06-24T16:12:30.950Z,565
2017-06-24T16:13:41.195Z,480
2017-06-24T16:14:51.438Z,455
2017-06-24T16:16:01.949Z,460
2017-06-24T16:17:12.201Z,485
2017-06-24T16:18:22.488Z,485